sensor_id;sensor_type;location;lat;lon;timestamp;pressure;altitude;pressure_sealevel;temperature;humidity
11001;BME280;5553;48.506;8.870;2023-02-01T00:01:27;97258.47;;;1.10;100.00
11001;BME280;5553;48.506;8.870;2023-02-01T00:03:55;97246.38;;;1.09;100.00
11001;BME280;5553;48.506;8.870;2023-02-01T00:06:24;97246.16;;;1.12;100.00
11001;BME280;5553;48.506;8.870;2023-02-01T00:08:52;97250.53;;;1.11;100.00
11001;BME280;5553;48.506;8.870;2023-02-01T00:11:24;97238.13;;;1.15;100.00
11001;BME280;5553;48.506;8.870;2023-02-01T00:13:52;97240.03;;;1.13;100.00
11001;BME280;5553;48.506;8.870;2023-02-01T00:16:22;97238.88;;;1.17;100.00
11001;BME280;5553;48.506;8.870;2023-02-01T00:18:55;97231.75;;;1.19;100.00
11001;BME280;5553;48.506;8.870;2023-02-01T00:21:25;97232.34;;;1.23;100.00
11001;BME280;5553;48.506;8.870;2023-02-01T00:23:53;97227.28;;;1.21;100.00
11001;BME280;5553;48.506;8.870;2023-02-01T00:26:30;97225.28;;;1.25;100.00
11001;BME280;5553;48.506;8.870;2023-02-01T00:28:59;97218.28;;;1.14;100.00
11001;BME280;5553;48.506;8.870;2023-02-01T00:31:28;97232.72;;;1.18;100.00
11001;BME280;5553;48.506;8.870;2023-02-01T00:33:56;97229.16;;;1.19;100.00
11001;BME280;5553;48.506;8.870;2023-02-01T00:36:24;97221.84;;;1.13;100.00
11001;BME280;5553;48.506;8.870;2023-02-01T00:38:53;97232.72;;;1.18;100.00
11001;BME280;5553;48.506;8.870;2023-02-01T00:41:25;97228.91;;;1.11;100.00
11001;BME280;5553;48.506;8.870;2023-02-01T00:43:53;97229.16;;;1.08;100.00
11001;BME280;5553;48.506;8.870;2023-02-01T00:46:22;97230.34;;;1.15;100.00
11001;BME280;5553;48.506;8.870;2023-02-01T00:48:50;97236.38;;;1.15;100.00
11001;BME280;5553;48.506;8.870;2023-02-01T00:51:21;97224.19;;;1.16;100.00
11001;BME280;5553;48.506;8.870;2023-02-01T00:53:50;97214.06;;;1.13;100.00
11001;BME280;5553;48.506;8.870;2023-02-01T00:56:19;97215.78;;;1.12;100.00
11001;BME280;5553;48.506;8.870;2023-02-01T00:58:50;97217.13;;;1.18;100.00
11001;BME280;5553;48.506;8.870;2023-02-01T01:01:20;97211.56;;;1.11;100.00
11001;BME280;5553;48.506;8.870;2023-02-01T01:03:50;97207.41;;;1.09;100.00
11001;BME280;5553;48.506;8.870;2023-02-01T01:06:22;97208.34;;;1.08;100.00
11001;BME280;5553;48.506;8.870;2023-02-01T01:08:52;97214.97;;;1.12;100.00
11001;BME280;5553;48.506;8.870;2023-02-01T01:11:22;97206.25;;;1.13;100.00
11001;BME280;5553;48.506;8.870;2023-02-01T01:13:54;97199.50;;;1.10;100.00
11001;BME280;5553;48.506;8.870;2023-02-01T01:16:25;97206.59;;;1.08;100.00
11001;BME280;5553;48.506;8.870;2023-02-01T01:18:54;97210.81;;;1.09;100.00
11001;BME280;5553;48.506;8.870;2023-02-01T01:21:23;97222.69;;;1.13;100.00
11001;BME280;5553;48.506;8.870;2023-02-01T01:23:51;97228.69;;;1.14;100.00
11001;BME280;5553;48.506;8.870;2023-02-01T01:26:21;97211.78;;;1.19;100.00
11001;BME280;5553;48.506;8.870;2023-02-01T01:28:54;97215.34;;;1.18;100.00
11001;BME280;5553;48.506;8.870;2023-02-01T01:31:23;97221.38;;;1.19;100.00
11001;BME280;5553;48.506;8.870;2023-02-01T01:33:54;97218.31;;;1.25;100.00
11001;BME280;5553;48.506;8.870;2023-02-01T01:36:23;97208.63;;;1.27;100.00
11001;BME280;5553;48.506;8.870;2023-02-01T01:38:52;97202.47;;;1.28;100.00
11001;BME280;5553;48.506;8.870;2023-02-01T01:41:22;97193.13;;;1.26;100.00
11001;BME280;5553;48.506;8.870;2023-02-01T01:44:02;97196.09;;;1.32;100.00
11001;BME280;5553;48.506;8.870;2023-02-01T01:46:33;97198.69;;;1.32;100.00
11001;BME280;5553;48.506;8.870;2023-02-01T01:49:06;97192.44;;;1.35;100.00
11001;BME280;5553;48.506;8.870;2023-02-01T01:51:38;97197.75;;;1.33;100.00
11001;BME280;5553;48.506;8.870;2023-02-01T01:54:11;97189.38;;;1.41;100.00
11001;BME280;5553;48.506;8.870;2023-02-01T01:56:43;97199.88;;;1.39;100.00
11001;BME280;5553;48.506;8.870;2023-02-01T01:59:17;97183.34;;;1.40;100.00
11001;BME280;5553;48.506;8.870;2023-02-01T02:01:45;97183.72;;;1.47;100.00
11001;BME280;5553;48.506;8.870;2023-02-01T02:04:14;97181.22;;;1.46;100.00
11001;BME280;5553;48.506;8.870;2023-02-01T02:06:47;97171.88;;;1.43;100.00
11001;BME280;5553;48.506;8.870;2023-02-01T02:09:18;97178.13;;;1.52;100.00
11001;BME280;5553;48.506;8.870;2023-02-01T02:11:46;97167.97;;;1.49;100.00
11001;BME280;5553;48.506;8.870;2023-02-01T02:14:19;97161.81;;;1.50;100.00
11001;BME280;5553;48.506;8.870;2023-02-01T02:17:03;97161.47;;;1.54;100.00
11001;BME280;5553;48.506;8.870;2023-02-01T02:20:11;97157.44;;;1.50;100.00
11001;BME280;5553;48.506;8.870;2023-02-01T02:22:53;97153.78;;;1.53;100.00
11001;BME280;5553;48.506;8.870;2023-02-01T02:31:58;97157.56;;;1.49;100.00
11001;BME280;5553;48.506;8.870;2023-02-01T02:34:38;97157.69;;;1.47;100.00
11001;BME280;5553;48.506;8.870;2023-02-01T02:37:14;97152.50;;;1.47;100.00
11001;BME280;5553;48.506;8.870;2023-02-01T02:39:50;97152.59;;;1.46;100.00
11001;BME280;5553;48.506;8.870;2023-02-01T02:42:27;97156.16;;;1.45;100.00
11001;BME280;5553;48.506;8.870;2023-02-01T02:45:14;97157.09;;;1.43;100.00
11001;BME280;5553;48.506;8.870;2023-02-01T02:48:09;97157.81;;;1.46;100.00
11001;BME280;5553;48.506;8.870;2023-02-01T02:50:46;97147.63;;;1.42;100.00
11001;BME280;5553;48.506;8.870;2023-02-01T02:53:33;97157.81;;;1.46;100.00
11001;BME280;5553;48.506;8.870;2023-02-01T02:56:16;97157.09;;;1.43;100.00
11001;BME280;5553;48.506;8.870;2023-02-01T02:58:59;97156.16;;;1.45;100.00
11001;BME280;5553;48.506;8.870;2023-02-01T03:01:41;97150.00;;;1.46;100.00
11001;BME280;5553;48.506;8.870;2023-02-01T03:04:22;97153.09;;;1.51;100.00
11001;BME280;5553;48.506;8.870;2023-02-01T03:06:54;97151.53;;;1.48;100.00
11001;BME280;5553;48.506;8.870;2023-02-01T03:09:25;97147.41;;;1.46;100.00
11001;BME280;5553;48.506;8.870;2023-02-01T03:11:59;97138.41;;;1.50;100.00
11001;BME280;5553;48.506;8.870;2023-02-01T03:14:43;97141.59;;;1.53;100.00
11001;BME280;5553;48.506;8.870;2023-02-01T03:17:18;97127.53;;;1.56;100.00
11001;BME280;5553;48.506;8.870;2023-02-01T03:19:50;97131.44;;;1.50;100.00
11001;BME280;5553;48.506;8.870;2023-02-01T03:22:24;97137.00;;;1.46;100.00
11001;BME280;5553;48.506;8.870;2023-02-01T03:28:08;97138.06;;;1.54;100.00
11001;BME280;5553;48.506;8.870;2023-02-01T03:30:40;97140.78;;;1.53;100.00
11001;BME280;5553;48.506;8.870;2023-02-01T03:33:13;97137.72;;;1.48;100.00
11001;BME280;5553;48.506;8.870;2023-02-01T03:35:54;97137.59;;;1.49;100.00
11001;BME280;5553;48.506;8.870;2023-02-01T03:38:30;97131.69;;;1.47;100.00
11001;BME280;5553;48.506;8.870;2023-02-01T03:41:06;97130.13;;;1.56;100.00
11001;BME280;5553;48.506;8.870;2023-02-01T03:43:45;97135.56;;;1.53;100.00
11001;BME280;5553;48.506;8.870;2023-02-01T03:46:20;97137.22;;;1.54;100.00
11001;BME280;5553;48.506;8.870;2023-02-01T03:48:51;97128.97;;;1.49;100.00
11001;BME280;5553;48.506;8.870;2023-02-01T07:56:15;97155.84;;;1.93;100.00
11001;BME280;5553;48.506;8.870;2023-02-01T07:58:47;97153.59;;;1.88;100.00
11001;BME280;5553;48.506;8.870;2023-02-01T08:01:16;97153.59;;;1.88;100.00
11001;BME280;5553;48.506;8.870;2023-02-01T08:03:51;97156.53;;;1.95;100.00
11001;BME280;5553;48.506;8.870;2023-02-01T08:11:22;97154.19;;;2.03;100.00
11001;BME280;5553;48.506;8.870;2023-02-01T08:16:19;97141.84;;;2.05;100.00
11001;BME280;5553;48.506;8.870;2023-02-01T08:23:46;97129.63;;;2.17;100.00
11001;BME280;5553;48.506;8.870;2023-02-01T08:26:17;97140.06;;;2.17;100.00
11001;BME280;5553;48.506;8.870;2023-02-01T08:28:50;97147.97;;;2.15;100.00
11001;BME280;5553;48.506;8.870;2023-02-01T08:31:20;97121.59;;;2.08;100.00
11001;BME280;5553;48.506;8.870;2023-02-01T08:33:51;97130.13;;;2.10;100.00
11001;BME280;5553;48.506;8.870;2023-02-01T08:36:20;97129.06;;;2.13;100.00
11001;BME280;5553;48.506;8.870;2023-02-01T08:38:49;97127.66;;;2.09;100.00
11001;BME280;5553;48.506;8.870;2023-02-01T08:41:21;97133.38;;;2.24;100.00
11001;BME280;5553;48.506;8.870;2023-02-01T08:43:55;97143.22;;;2.20;100.00
11001;BME280;5553;48.506;8.870;2023-02-01T08:46:36;97135.66;;;2.17;100.00
11001;BME280;5553;48.506;8.870;2023-02-01T08:49:06;97148.06;;;2.25;100.00
11001;BME280;5553;48.506;8.870;2023-02-01T08:51:34;97137.06;;;2.21;100.00
11001;BME280;5553;48.506;8.870;2023-02-01T09:04:16;97132.56;;;2.23;100.00
11001;BME280;5553;48.506;8.870;2023-02-01T09:06:45;97134.41;;;2.32;100.00
11001;BME280;5553;48.506;8.870;2023-02-01T09:09:14;97141.28;;;2.33;100.00
11001;BME280;5553;48.506;8.870;2023-02-01T09:11:42;97139.50;;;2.34;100.00
11001;BME280;5553;48.506;8.870;2023-02-01T09:14:10;97149.53;;;2.38;100.00
11001;BME280;5553;48.506;8.870;2023-02-01T09:16:39;97139.94;;;2.39;100.00
11001;BME280;5553;48.506;8.870;2023-02-01T09:19:07;97149.03;;;2.45;100.00
11001;BME280;5553;48.506;8.870;2023-02-01T09:24:13;97147.41;;;2.44;100.00
11001;BME280;5553;48.506;8.870;2023-02-01T09:26:42;97165.72;;;2.53;100.00
11001;BME280;5553;48.506;8.870;2023-02-01T09:29:10;97156.31;;;2.62;100.00
11001;BME280;5553;48.506;8.870;2023-02-01T09:31:39;97147.91;;;2.58;100.00
11001;BME280;5553;48.506;8.870;2023-02-01T09:34:07;97139.28;;;2.58;100.00
11001;BME280;5553;48.506;8.870;2023-02-01T09:36:36;97150.03;;;2.65;100.00
11001;BME280;5553;48.506;8.870;2023-02-01T09:39:04;97146.44;;;2.66;100.00
11001;BME280;5553;48.506;8.870;2023-02-01T09:41:42;97141.75;;;2.59;100.00
11001;BME280;5553;48.506;8.870;2023-02-01T09:44:21;97145.78;;;2.64;100.00
11001;BME280;5553;48.506;8.870;2023-02-01T09:46:57;97133.31;;;2.67;100.00
11001;BME280;5553;48.506;8.870;2023-02-01T09:49:29;97141.31;;;2.75;100.00
11001;BME280;5553;48.506;8.870;2023-02-01T09:52:02;97144.38;;;2.80;100.00
11001;BME280;5553;48.506;8.870;2023-02-01T09:54:40;97142.69;;;2.79;100.00
11001;BME280;5553;48.506;8.870;2023-02-01T09:57:16;97144.38;;;2.80;100.00
11001;BME280;5553;48.506;8.870;2023-02-01T10:02:25;97136.75;;;2.89;100.00
11001;BME280;5553;48.506;8.870;2023-02-01T10:10:02;97136.53;;;3.01;100.00
11001;BME280;5553;48.506;8.870;2023-02-01T10:15:15;97134.66;;;3.13;100.00
11001;BME280;5553;48.506;8.870;2023-02-01T10:18:00;97145.16;;;3.23;100.00
11001;BME280;5553;48.506;8.870;2023-02-01T10:20:47;97138.84;;;3.25;100.00
11001;BME280;5553;48.506;8.870;2023-02-01T10:23:32;97141.97;;;3.19;100.00
11001;BME280;5553;48.506;8.870;2023-02-01T10:26:15;97145.72;;;3.26;100.00
11001;BME280;5553;48.506;8.870;2023-02-01T10:28:51;97153.03;;;3.32;100.00
11001;BME280;5553;48.506;8.870;2023-02-01T10:31:24;97161.09;;;3.29;100.00
11001;BME280;5553;48.506;8.870;2023-02-01T10:33:56;97163.56;;;3.31;100.00
11001;BME280;5553;48.506;8.870;2023-02-01T10:36:29;97158.34;;;3.31;100.00
11001;BME280;5553;48.506;8.870;2023-02-01T10:38:59;97162.06;;;3.28;100.00
11001;BME280;5553;48.506;8.870;2023-02-01T10:41:31;97156.84;;;3.28;100.00
11001;BME280;5553;48.506;8.870;2023-02-01T10:44:02;97168.38;;;3.26;100.00
11001;BME280;5553;48.506;8.870;2023-02-01T10:46:34;97165.63;;;3.27;100.00
11001;BME280;5553;48.506;8.870;2023-02-01T10:49:03;97158.91;;;3.35;100.00
11001;BME280;5553;48.506;8.870;2023-02-01T10:51:41;97171.53;;;3.29;100.00
11001;BME280;5553;48.506;8.870;2023-02-01T10:54:16;97162.06;;;3.28;100.00
11001;BME280;5553;48.506;8.870;2023-02-01T10:56:46;97159.00;;;3.23;100.00
11001;BME280;5553;48.506;8.870;2023-02-01T10:59:17;97153.38;;;3.18;100.00
11001;BME280;5553;48.506;8.870;2023-02-01T11:01:49;97143.75;;;3.19;100.00
11001;BME280;5553;48.506;8.870;2023-02-01T11:04:19;97143.75;;;3.19;100.00
11001;BME280;5553;48.506;8.870;2023-02-01T11:06:51;97139.38;;;3.19;100.00
11001;BME280;5553;48.506;8.870;2023-02-01T11:09:22;97139.38;;;3.19;100.00
11001;BME280;5553;48.506;8.870;2023-02-01T11:11:56;97141.00;;;3.20;100.00
11001;BME280;5553;48.506;8.870;2023-02-01T11:14:35;97130.00;;;3.17;100.00
11001;BME280;5553;48.506;8.870;2023-02-01T11:17:21;97131.94;;;3.15;100.00
11001;BME280;5553;48.506;8.870;2023-02-01T11:19:58;97125.06;;;3.14;100.00
11001;BME280;5553;48.506;8.870;2023-02-01T11:22:27;97134.16;;;3.19;100.00
11001;BME280;5553;48.506;8.870;2023-02-01T11:24:56;97136.94;;;3.27;100.00
11001;BME280;5553;48.506;8.870;2023-02-01T11:27:26;97145.00;;;3.24;100.00
11001;BME280;5553;48.506;8.870;2023-02-01T11:29:58;97144.06;;;3.25;100.00
11001;BME280;5553;48.506;8.870;2023-02-01T11:32:31;97139.47;;;3.39;100.00
11001;BME280;5553;48.506;8.870;2023-02-01T11:35:03;97129.88;;;3.49;100.00
11001;BME280;5553;48.506;8.870;2023-02-01T11:37:36;97121.09;;;3.50;100.00
11001;BME280;5553;48.506;8.870;2023-02-01T11:40:25;97108.00;;;3.40;100.00
11001;BME280;5553;48.506;8.870;2023-02-01T11:42:55;97102.25;;;3.37;100.00
11001;BME280;5553;48.506;8.870;2023-02-01T11:45:26;97088.66;;;3.43;100.00
11001;BME280;5553;48.506;8.870;2023-02-01T11:47:58;97089.56;;;3.63;100.00
11001;BME280;5553;48.506;8.870;2023-02-01T11:50:33;97093.16;;;3.81;100.00
11001;BME280;5553;48.506;8.870;2023-02-01T11:53:20;97077.06;;;3.76;100.00
11001;BME280;5553;48.506;8.870;2023-02-01T11:56:04;97068.84;;;3.80;100.00
11001;BME280;5553;48.506;8.870;2023-02-01T11:58:50;97066.53;;;3.97;100.00
11001;BME280;5553;48.506;8.870;2023-02-01T12:01:37;97049.19;;;3.76;100.00
11001;BME280;5553;48.506;8.870;2023-02-01T12:04:43;97032.53;;;3.58;100.00
11001;BME280;5553;48.506;8.870;2023-02-01T12:07:17;97036.66;;;3.61;100.00
11001;BME280;5553;48.506;8.870;2023-02-01T12:09:58;97036.94;;;3.58;100.00
11001;BME280;5553;48.506;8.870;2023-02-01T12:12:36;97015.63;;;3.43;100.00
11001;BME280;5553;48.506;8.870;2023-02-01T12:15:20;97023.56;;;3.41;100.00
11001;BME280;5553;48.506;8.870;2023-02-01T12:18:05;97027.31;;;3.39;100.00
11001;BME280;5553;48.506;8.870;2023-02-01T12:21:02;97026.72;;;3.45;100.00
11001;BME280;5553;48.506;8.870;2023-02-01T12:23:46;97015.59;;;3.33;100.00
11001;BME280;5553;48.506;8.870;2023-02-01T12:26:41;97026.75;;;3.35;100.00
11001;BME280;5553;48.506;8.870;2023-02-01T12:29:26;97028.75;;;3.31;100.00
11001;BME280;5553;48.506;8.870;2023-02-01T12:32:08;97028.66;;;3.43;100.00
11001;BME280;5553;48.506;8.870;2023-02-01T12:34:57;97040.91;;;3.42;100.00
11001;BME280;5553;48.506;8.870;2023-02-01T12:37:51;97033.97;;;3.31;100.00
11001;BME280;5553;48.506;8.870;2023-02-01T12:40:33;97033.72;;;3.25;100.00
11001;BME280;5553;48.506;8.870;2023-02-01T12:43:10;97044.09;;;3.15;100.00
11001;BME280;5553;48.506;8.870;2023-02-01T12:45:44;97038.19;;;3.13;100.00
11001;BME280;5553;48.506;8.870;2023-02-01T12:48:23;97049.84;;;3.09;100.00
11001;BME280;5553;48.506;8.870;2023-02-01T12:50:56;97050.09;;;3.06;100.00
11001;BME280;5553;48.506;8.870;2023-02-01T12:53:33;97057.22;;;3.04;100.00
11001;BME280;5553;48.506;8.870;2023-02-01T12:56:07;97052.88;;;3.14;100.00
11001;BME280;5553;48.506;8.870;2023-02-01T12:58:43;97048.97;;;2.99;100.00
11001;BME280;5553;48.506;8.870;2023-02-01T13:01:18;97041.28;;;2.97;100.00
11001;BME280;5553;48.506;8.870;2023-02-01T13:03:55;97046.22;;;2.91;100.00
11001;BME280;5553;48.506;8.870;2023-02-01T13:06:29;97046.78;;;2.94;100.00
11001;BME280;5553;48.506;8.870;2023-02-01T13:09:08;97039.47;;;2.88;100.00
11001;BME280;5553;48.506;8.870;2023-02-01T13:11:39;97036.63;;;2.91;100.00
11001;BME280;5553;48.506;8.870;2023-02-01T13:14:27;97040.56;;;2.85;100.00
11001;BME280;5553;48.506;8.870;2023-02-01T13:17:00;97049.44;;;2.83;100.00
11001;BME280;5553;48.506;8.870;2023-02-01T13:19:37;97052.75;;;2.85;100.00
11001;BME280;5553;48.506;8.870;2023-02-01T13:22:12;97064.16;;;2.84;100.00
11001;BME280;5553;48.506;8.870;2023-02-01T13:24:46;97068.97;;;2.89;100.00
11001;BME280;5553;48.506;8.870;2023-02-01T13:27:16;97061.53;;;2.84;100.00
11001;BME280;5553;48.506;8.870;2023-02-01T13:29:52;97070.34;;;2.93;100.00
11001;BME280;5553;48.506;8.870;2023-02-01T13:35:26;97049.84;;;3.09;100.00
11001;BME280;5553;48.506;8.870;2023-02-01T13:38:09;97045.97;;;3.03;100.00
11001;BME280;5553;48.506;8.870;2023-02-01T13:40:49;97041.72;;;3.02;100.00
11001;BME280;5553;48.506;8.870;2023-02-01T13:43:25;97032.25;;;3.01;100.00
11001;BME280;5553;48.506;8.870;2023-02-01T13:45:56;97034.16;;;2.99;100.00
11001;BME280;5553;48.506;8.870;2023-02-01T13:48:28;97032.22;;;2.92;100.00
11001;BME280;5553;48.506;8.870;2023-02-01T13:50:58;97032.63;;;2.97;100.00
11001;BME280;5553;48.506;8.870;2023-02-01T13:53:29;97016.72;;;3.00;100.00
11001;BME280;5553;48.506;8.870;2023-02-01T13:56:03;97031.69;;;2.98;100.00
11001;BME280;5553;48.506;8.870;2023-02-01T13:58:34;97021.09;;;2.90;100.00
11001;BME280;5553;48.506;8.870;2023-02-01T14:01:35;97029.47;;;2.93;100.00
11001;BME280;5553;48.506;8.870;2023-02-01T14:04:05;97023.44;;;2.93;100.00
11001;BME280;5553;48.506;8.870;2023-02-01T14:06:42;97022.47;;;2.94;100.00
11001;BME280;5553;48.506;8.870;2023-02-01T14:09:17;97017.97;;;2.96;100.00
11001;BME280;5553;48.506;8.870;2023-02-01T14:11:50;97016.16;;;2.96;100.00
11001;BME280;5553;48.506;8.870;2023-02-01T14:14:43;97016.72;;;3.00;100.00
11001;BME280;5553;48.506;8.870;2023-02-01T14:17:39;97013.34;;;3.09;100.00
11001;BME280;5553;48.506;8.870;2023-02-01T14:23:25;97006.09;;;3.13;100.00
11001;BME280;5553;48.506;8.870;2023-02-01T14:26:17;97009.41;;;3.15;100.00
11001;BME280;5553;48.506;8.870;2023-02-01T14:28:54;96997.19;;;3.15;100.00
11001;BME280;5553;48.506;8.870;2023-02-01T14:31:38;97004.84;;;3.17;100.00
11001;BME280;5553;48.506;8.870;2023-02-01T14:34:14;97006.19;;;3.11;100.00
11001;BME280;5553;48.506;8.870;2023-02-01T14:36:46;97011.69;;;3.08;100.00
11001;BME280;5553;48.506;8.870;2023-02-01T14:39:35;97014.16;;;3.09;100.00
11001;BME280;5553;48.506;8.870;2023-02-01T14:42:14;97012.81;;;3.15;100.00
11001;BME280;5553;48.506;8.870;2023-02-01T14:44:50;97025.16;;;3.13;100.00
11001;BME280;5553;48.506;8.870;2023-02-01T14:47:30;97024.19;;;3.14;100.00
11001;BME280;5553;48.506;8.870;2023-02-01T14:50:13;97031.75;;;3.17;100.00
11001;BME280;5553;48.506;8.870;2023-02-01T14:52:47;97031.75;;;3.17;100.00
11001;BME280;5553;48.506;8.870;2023-02-01T14:55:21;97041.34;;;3.17;100.00
11001;BME280;5553;48.506;8.870;2023-02-01T14:57:54;97033.38;;;3.08;100.00
11001;BME280;5553;48.506;8.870;2023-02-01T15:00:27;97035.28;;;3.06;100.00
11001;BME280;5553;48.506;8.870;2023-02-01T15:03:19;97038.03;;;3.05;100.00
11001;BME280;5553;48.506;8.870;2023-02-01T15:05:55;97036.38;;;3.04;100.00
11001;BME280;5553;48.506;8.870;2023-02-01T15:08:27;97033.94;;;3.12;100.00
11001;BME280;5553;48.506;8.870;2023-02-01T15:10:58;97028.19;;;3.18;100.00
11001;BME280;5553;48.506;8.870;2023-02-01T15:13:29;97036.28;;;3.15;100.00
11001;BME280;5553;48.506;8.870;2023-02-01T15:16:10;97032.84;;;3.15;100.00
11001;BME280;5553;48.506;8.870;2023-02-01T15:18:40;97031.19;;;3.14;100.00
11001;BME280;5553;48.506;8.870;2023-02-01T15:21:16;97039.56;;;3.17;100.00
11001;BME280;5553;48.506;8.870;2023-02-01T15:23:45;97031.06;;;3.15;100.00
11001;BME280;5553;48.506;8.870;2023-02-01T15:26:27;97038.91;;;3.15;100.00
11001;BME280;5553;48.506;8.870;2023-02-01T15:28:56;97040.78;;;3.13;100.00
11001;BME280;5553;48.506;8.870;2023-02-01T15:31:38;97042.19;;;3.17;100.00
11001;BME280;5553;48.506;8.870;2023-02-01T15:34:07;97040.78;;;3.13;100.00
11001;BME280;5553;48.506;8.870;2023-02-01T15:36:35;97041.06;;;3.10;100.00
11001;BME280;5553;48.506;8.870;2023-02-01T15:39:16;97061.25;;;3.08;100.00
11001;BME280;5553;48.506;8.870;2023-02-01T15:41:50;97047.34;;;3.07;100.00
11001;BME280;5553;48.506;8.870;2023-02-01T15:44:27;97045.16;;;3.03;100.00
11001;BME280;5553;48.506;8.870;2023-02-01T15:47:04;97051.19;;;3.03;100.00
11001;BME280;5553;48.506;8.870;2023-02-01T15:49:37;97049.13;;;3.07;100.00
11001;BME280;5553;48.506;8.870;2023-02-01T15:52:24;97052.31;;;3.11;100.00
11001;BME280;5553;48.506;8.870;2023-02-01T15:54:55;97053.94;;;3.02;100.00
11001;BME280;5553;48.506;8.870;2023-02-01T15:57:26;97056.53;;;3.02;100.00
11001;BME280;5553;48.506;8.870;2023-02-01T15:59:59;97055.59;;;3.03;100.00
11001;BME280;5553;48.506;8.870;2023-02-01T16:02:33;97054.75;;;3.02;100.00
11001;BME280;5553;48.506;8.870;2023-02-01T16:05:04;97041.75;;;3.12;100.00
11001;BME280;5553;48.506;8.870;2023-02-01T16:07:34;97056.41;;;3.03;100.00
11001;BME280;5553;48.506;8.870;2023-02-01T16:10:22;97044.31;;;3.02;100.00
11001;BME280;5553;48.506;8.870;2023-02-01T16:12:52;97052.94;;;2.93;100.00
11001;BME280;5553;48.506;8.870;2023-02-01T16:15:25;97049.34;;;2.84;100.00
11001;BME280;5553;48.506;8.870;2023-02-01T16:17:57;97054.34;;;2.76;100.00
11001;BME280;5553;48.506;8.870;2023-02-01T16:20:25;97046.63;;;2.65;100.00
11001;BME280;5553;48.506;8.870;2023-02-01T16:22:55;97057.63;;;2.69;100.00
11001;BME280;5553;48.506;8.870;2023-02-01T16:25:23;97047.44;;;2.66;100.00
11001;BME280;5553;48.506;8.870;2023-02-01T16:27:51;97068.44;;;2.64;100.00
11001;BME280;5553;48.506;8.870;2023-02-01T16:30:24;97063.88;;;2.56;100.00
11001;BME280;5553;48.506;8.870;2023-02-01T16:32:53;97063.56;;;2.50;100.00
11001;BME280;5553;48.506;8.870;2023-02-01T16:35:27;97066.59;;;2.55;100.00
11001;BME280;5553;48.506;8.870;2023-02-01T16:37:57;97069.69;;;2.49;100.00
11001;BME280;5553;48.506;8.870;2023-02-01T16:40:26;97074.22;;;2.47;100.00
11001;BME280;5553;48.506;8.870;2023-02-01T16:42:54;97071.16;;;2.42;100.00
11001;BME280;5553;48.506;8.870;2023-02-01T16:45:23;97064.56;;;2.37;100.00
11001;BME280;5553;48.506;8.870;2023-02-01T16:47:54;97089.13;;;2.24;100.00
11001;BME280;5553;48.506;8.870;2023-02-01T16:50:25;97084.31;;;2.19;100.00
11001;BME280;5553;48.506;8.870;2023-02-01T16:52:54;97086.84;;;2.30;100.00
11001;BME280;5553;48.506;8.870;2023-02-01T16:55:22;97092.16;;;2.29;100.00
11001;BME280;5553;48.506;8.870;2023-02-01T16:57:51;97072.94;;;2.20;100.00
11001;BME280;5553;48.506;8.870;2023-02-01T17:00:19;97078.19;;;2.09;100.00
11001;BME280;5553;48.506;8.870;2023-02-01T17:02:50;97089.00;;;2.25;100.00
11001;BME280;5553;48.506;8.870;2023-02-01T17:05:18;97081.41;;;2.22;100.00
11001;BME280;5553;48.506;8.870;2023-02-01T17:07:50;97085.25;;;2.18;100.00
11001;BME280;5553;48.506;8.870;2023-02-01T17:10:23;97075.34;;;2.12;100.00
11001;BME280;5553;48.506;8.870;2023-02-01T17:12:52;97082.59;;;2.29;100.00
11001;BME280;5553;48.506;8.870;2023-02-01T17:15:22;97083.59;;;2.17;100.00
11001;BME280;5553;48.506;8.870;2023-02-01T17:17:50;97096.38;;;2.20;100.00
11001;BME280;5553;48.506;8.870;2023-02-01T17:20:22;97097.38;;;2.29;100.00
11001;BME280;5553;48.506;8.870;2023-02-01T17:22:54;97086.59;;;2.33;100.00
11001;BME280;5553;48.506;8.870;2023-02-01T17:25:22;97109.78;;;2.36;100.00
11001;BME280;5553;48.506;8.870;2023-02-01T17:27:51;97108.97;;;2.36;100.00
11001;BME280;5553;48.506;8.870;2023-02-01T17:30:19;97104.84;;;2.33;100.00
11001;BME280;5553;48.506;8.870;2023-02-01T17:32:48;97106.41;;;2.25;100.00
11001;BME280;5553;48.506;8.870;2023-02-01T17:35:18;97105.31;;;2.27;100.00
11001;BME280;5553;48.506;8.870;2023-02-01T17:37:47;97105.66;;;2.34;100.00
11001;BME280;5553;48.506;8.870;2023-02-01T17:40:18;97114.09;;;2.26;100.00
11001;BME280;5553;48.506;8.870;2023-02-01T17:42:47;97111.69;;;2.34;100.00
11001;BME280;5553;48.506;8.870;2023-02-01T17:45:27;97115.31;;;2.43;100.00
11001;BME280;5553;48.506;8.870;2023-02-01T17:48:04;97102.41;;;2.42;100.00
11001;BME280;5553;48.506;8.870;2023-02-01T17:50:34;97113.91;;;2.39;100.00
11001;BME280;5553;48.506;8.870;2023-02-01T17:53:04;97114.47;;;2.43;100.00
11001;BME280;5553;48.506;8.870;2023-02-01T17:55:40;97128.47;;;2.42;100.00
11001;BME280;5553;48.506;8.870;2023-02-01T17:58:09;97127.56;;;2.52;100.00
11001;BME280;5553;48.506;8.870;2023-02-01T18:00:38;97131.53;;;2.47;100.00
11001;BME280;5553;48.506;8.870;2023-02-01T18:03:18;97132.09;;;2.50;100.00
11001;BME280;5553;48.506;8.870;2023-02-01T18:05:47;97120.22;;;2.36;100.00
11001;BME280;5553;48.506;8.870;2023-02-01T18:08:18;97125.59;;;2.24;100.00
11001;BME280;5553;48.506;8.870;2023-02-01T18:10:50;97126.81;;;2.41;100.00
11001;BME280;5553;48.506;8.870;2023-02-01T18:13:18;97128.28;;;2.22;100.00
11001;BME280;5553;48.506;8.870;2023-02-01T18:15:48;97119.38;;;2.36;100.00
11001;BME280;5553;48.506;8.870;2023-02-01T18:18:17;97132.50;;;2.34;100.00
11001;BME280;5553;48.506;8.870;2023-02-01T18:20:45;97145.03;;;2.41;100.00
11001;BME280;5553;48.506;8.870;2023-02-01T18:23:17;97128.47;;;2.42;100.00
11001;BME280;5553;48.506;8.870;2023-02-01T18:25:49;97130.00;;;2.44;100.00
11001;BME280;5553;48.506;8.870;2023-02-01T18:28:19;97139.94;;;2.39;100.00
11001;BME280;5553;48.506;8.870;2023-02-01T18:30:48;97133.34;;;2.35;100.00
11001;BME280;5553;48.506;8.870;2023-02-01T18:33:19;97133.47;;;2.33;100.00
11001;BME280;5553;48.506;8.870;2023-02-01T18:35:48;97128.78;;;2.48;100.00
11001;BME280;5553;48.506;8.870;2023-02-01T18:38:16;97133.16;;;2.48;100.00
11001;BME280;5553;48.506;8.870;2023-02-01T18:40:50;97142.13;;;2.55;100.00
11001;BME280;5553;48.506;8.870;2023-02-01T18:43:21;97140.97;;;2.48;100.00